createdAt,value
2022-12-03T00:00:35.606Z,29.05
2022-12-03T00:03:02.444Z,27.25
2022-12-03T00:05:29.149Z,23.95
2022-12-03T00:07:55.768Z,29.70
2022-12-03T00:10:22.332Z,29.98
2022-12-03T00:12:48.829Z,28.63
2022-12-03T00:15:15.436Z,29.63
2022-12-03T00:17:41.970Z,28.88
2022-12-03T00:20:09.830Z,33.53
2022-12-03T00:22:36.347Z,32.15
2022-12-03T00:25:02.950Z,31.30
2022-12-03T00:27:29.488Z,29.38
2022-12-03T00:29:55.991Z,31.58
2022-12-03T00:32:22.469Z,30.45
2022-12-03T00:34:48.986Z,29.63
2022-12-03T00:37:15.560Z,32.03
2022-12-03T00:39:42.097Z,28.15
2022-12-03T00:42:08.583Z,29.98
2022-12-03T00:44:35.205Z,31.20
2022-12-03T00:47:01.882Z,29.13
2022-12-03T00:49:28.376Z,30.35
2022-12-03T00:51:54.856Z,32.03
2022-12-03T00:54:22.786Z,29.00
2022-12-03T00:56:52.076Z,31.40
2022-12-03T00:59:18.627Z,32.40
2022-12-03T01:01:45.182Z,29.38
2022-12-03T01:04:11.829Z,30.52
2022-12-03T01:06:38.654Z,32.38
2022-12-03T01:09:05.290Z,32.10
2022-12-03T01:11:37.396Z,30.80
2022-12-03T01:14:05.955Z,33.15
2022-12-03T01:16:32.921Z,32.90
2022-12-03T01:18:59.541Z,32.53
2022-12-03T01:21:26.055Z,32.58
2022-12-03T01:23:52.598Z,31.48
2022-12-03T01:26:19.138Z,32.83
2022-12-03T01:28:45.596Z,30.80
2022-12-03T01:31:30.771Z,32.10
2022-12-03T01:33:57.379Z,32.30
2022-12-03T01:36:24.013Z,32.10
2022-12-03T01:38:50.547Z,33.47
2022-12-03T01:41:18.981Z,32.35
2022-12-03T01:43:46.061Z,30.90
2022-12-03T01:46:16.560Z,32.63
2022-12-03T01:48:43.672Z,31.92
2022-12-03T01:51:10.211Z,32.85
2022-12-03T01:53:36.853Z,30.65
2022-12-03T01:56:04.222Z,32.40
2022-12-03T01:58:31.164Z,21.38
2022-12-03T02:01:01.513Z,33.17
2022-12-03T02:03:28.575Z,32.22
2022-12-03T02:05:56.827Z,35.03
2022-12-03T02:08:37.620Z,36.72
2022-12-03T02:11:22.267Z,33.03
2022-12-03T02:13:52.742Z,25.08
2022-12-03T02:16:19.304Z,31.40
2022-12-03T02:18:46.030Z,33.17
2022-12-03T02:21:31.099Z,34.33
2022-12-03T02:24:24.814Z,34.25
2022-12-03T02:26:51.345Z,33.75
2022-12-03T02:29:17.904Z,32.90
2022-12-03T02:31:44.678Z,32.15
2022-12-03T02:34:11.623Z,34.53
2022-12-03T02:36:39.049Z,34.67
2022-12-03T02:39:05.985Z,35.92
2022-12-03T02:41:51.246Z,34.55
2022-12-03T02:44:17.750Z,35.30
2022-12-03T02:46:44.264Z,35.03
2022-12-03T02:49:10.902Z,24.17
2022-12-03T02:51:37.702Z,33.15
2022-12-03T02:54:04.461Z,35.50
2022-12-03T02:56:32.573Z,31.73
2022-12-03T02:59:02.941Z,34.85
2022-12-03T03:01:29.660Z,34.20
2022-12-03T03:03:56.752Z,37.17
2022-12-03T03:06:23.455Z,34.67
2022-12-03T03:08:50.160Z,35.53
2022-12-03T03:11:16.806Z,35.00
2022-12-03T03:13:43.728Z,37.08
2022-12-03T03:16:10.484Z,38.10
2022-12-03T03:18:37.103Z,36.85
2022-12-03T03:21:04.272Z,36.42
2022-12-03T03:23:30.819Z,27.60
2022-12-03T03:26:02.550Z,36.45
2022-12-03T03:28:30.302Z,35.75
2022-12-03T03:31:00.519Z,37.22
2022-12-03T03:33:27.534Z,37.92
2022-12-03T03:35:54.526Z,38.60
2022-12-03T03:38:22.682Z,36.97
2022-12-03T03:40:51.186Z,26.42
2022-12-03T03:43:18.387Z,25.20
2022-12-03T03:45:45.081Z,36.92
2022-12-03T03:48:13.011Z,37.05
2022-12-03T03:50:39.954Z,37.15
2022-12-03T03:53:06.780Z,37.50
2022-12-03T03:55:34.540Z,37.25
2022-12-03T03:58:01.198Z,38.80
2022-12-03T04:00:27.935Z,36.05
2022-12-03T04:02:54.427Z,35.58
2022-12-03T04:05:23.611Z,36.33
2022-12-03T04:07:50.868Z,37.30
2022-12-03T04:10:38.054Z,36.03
2022-12-03T04:13:05.604Z,38.45
2022-12-03T04:15:32.110Z,37.05
2022-12-03T04:18:17.166Z,37.83
2022-12-03T04:20:43.770Z,37.17
2022-12-03T04:23:10.359Z,37.78
2022-12-03T04:25:55.800Z,39.55
2022-12-03T04:28:41.132Z,39.60
2022-12-03T04:31:26.386Z,37.75
2022-12-03T04:34:11.757Z,39.97
2022-12-03T04:36:38.432Z,38.22
2022-12-03T04:39:07.044Z,38.80
2022-12-03T04:41:33.584Z,20.88
2022-12-03T04:44:18.453Z,38.90
2022-12-03T04:46:44.938Z,38.38
2022-12-03T04:49:12.609Z,38.78
2022-12-03T04:51:39.176Z,40.00
2022-12-03T04:54:05.764Z,26.52
2022-12-03T04:56:32.300Z,39.63
2022-12-03T04:58:58.772Z,38.72
2022-12-03T05:01:25.319Z,37.67
2022-12-03T05:03:51.918Z,40.35
2022-12-03T05:06:18.384Z,28.90
2022-12-03T05:08:44.849Z,38.38
2022-12-03T05:11:11.433Z,24.45
2022-12-03T05:13:37.957Z,37.78
2022-12-03T05:16:04.514Z,37.88
2022-12-03T05:18:30.974Z,38.63
2022-12-03T05:20:57.492Z,39.13
2022-12-03T05:23:24.774Z,28.30
2022-12-03T05:25:51.505Z,37.70
2022-12-03T05:28:18.039Z,38.47
2022-12-03T05:30:44.604Z,39.33
2022-12-03T05:33:11.097Z,39.92
2022-12-03T05:35:37.561Z,38.70
2022-12-03T05:38:04.144Z,38.88
2022-12-03T05:40:30.633Z,38.70
2022-12-03T05:42:57.251Z,38.17
2022-12-03T05:45:30.923Z,39.03
2022-12-03T05:47:58.804Z,36.90
2022-12-03T05:50:27.295Z,38.95
2022-12-03T05:52:54.655Z,38.67
2022-12-03T05:55:21.234Z,37.72
2022-12-03T05:57:48.045Z,38.17
2022-12-03T06:00:20.640Z,41.35
2022-12-03T06:02:47.747Z,39.78
2022-12-03T06:05:15.685Z,38.83
2022-12-03T06:07:42.667Z,37.92
2022-12-03T06:10:11.548Z,38.25
2022-12-03T06:12:38.215Z,41.55
2022-12-03T06:15:05.655Z,39.58
2022-12-03T06:17:32.128Z,40.97
2022-12-03T06:19:58.634Z,44.65
2022-12-03T06:22:25.202Z,41.28
2022-12-03T06:24:52.096Z,42.28
2022-12-03T06:27:19.194Z,42.10
2022-12-03T06:29:45.737Z,40.22
2022-12-03T06:32:12.341Z,45.45
2022-12-03T06:34:38.858Z,42.10
2022-12-03T06:37:05.561Z,42.72
2022-12-03T06:39:32.113Z,43.03
2022-12-03T06:42:01.428Z,39.60
2022-12-03T06:44:27.959Z,41.90
2022-12-03T06:46:54.541Z,40.25
2022-12-03T06:49:21.165Z,40.47
2022-12-03T06:51:47.658Z,42.72
2022-12-03T06:54:14.161Z,41.90
2022-12-03T06:56:45.158Z,44.08
2022-12-03T06:59:12.213Z,41.00
2022-12-03T07:01:38.752Z,41.30
2022-12-03T07:04:05.767Z,40.30
2022-12-03T07:06:32.247Z,42.13
2022-12-03T07:08:58.779Z,39.47
2022-12-03T07:11:31.126Z,40.70
2022-12-03T07:14:05.494Z,40.70
2022-12-03T07:16:33.164Z,40.05
2022-12-03T07:18:59.940Z,38.70
2022-12-03T07:21:26.458Z,40.88
2022-12-03T07:23:52.997Z,40.58
2022-12-03T07:26:19.544Z,38.65
2022-12-03T07:28:48.145Z,39.88
2022-12-03T07:31:15.195Z,37.47
2022-12-03T07:33:42.301Z,37.53
2022-12-03T07:36:09.490Z,36.42
2022-12-03T07:38:36.313Z,27.20
2022-12-03T07:41:02.835Z,24.13
2022-12-03T07:43:29.430Z,35.80
2022-12-03T07:45:55.939Z,25.13
2022-12-03T07:48:22.426Z,34.55
2022-12-03T07:50:49.005Z,34.70
2022-12-03T07:53:15.622Z,35.10
2022-12-03T07:55:42.176Z,35.75
2022-12-03T07:58:09.337Z,36.25
2022-12-03T08:00:35.967Z,34.45
2022-12-03T08:03:02.522Z,36.97
2022-12-03T08:05:29.637Z,35.28
2022-12-03T08:07:56.686Z,34.20
2022-12-03T08:10:25.313Z,35.17
2022-12-03T08:12:53.627Z,36.30
2022-12-03T08:15:26.568Z,38.42
2022-12-03T08:18:00.658Z,36.45
2022-12-03T08:20:31.691Z,37.45
2022-12-03T08:22:58.922Z,37.47
2022-12-03T08:25:28.585Z,38.20
2022-12-03T08:28:00.139Z,36.55
2022-12-03T08:30:26.673Z,35.97
2022-12-03T08:32:53.833Z,36.45
2022-12-03T08:35:27.178Z,38.33
2022-12-03T08:37:59.577Z,37.72
2022-12-03T08:40:37.343Z,38.30
2022-12-03T08:43:17.977Z,36.70
2022-12-03T08:45:45.245Z,37.47
2022-12-03T08:48:25.417Z,40.55
2022-12-03T08:50:57.564Z,39.22
2022-12-03T08:53:36.692Z,38.90
2022-12-03T08:56:20.760Z,44.03
2022-12-03T08:58:49.417Z,42.28
2022-12-03T09:01:29.572Z,40.22
2022-12-03T09:03:58.849Z,40.60
2022-12-03T09:06:25.404Z,41.42
2022-12-03T09:08:51.899Z,42.03
2022-12-03T09:11:18.394Z,37.95
2022-12-03T09:13:44.924Z,39.88
2022-12-03T09:16:11.546Z,41.20
2022-12-03T09:18:38.180Z,42.47
2022-12-03T09:21:04.918Z,43.55
2022-12-03T09:23:31.425Z,40.90
2022-12-03T09:25:58.739Z,41.75
2022-12-03T09:28:25.310Z,43.13
2022-12-03T09:30:51.813Z,44.00
2022-12-03T09:33:18.348Z,40.60
2022-12-03T09:35:44.807Z,42.58
2022-12-03T09:38:11.462Z,45.50
2022-12-03T09:40:40.442Z,33.92
2022-12-03T09:43:07.035Z,47.00
2022-12-03T09:45:34.096Z,45.88
2022-12-03T09:48:02.023Z,45.58
2022-12-03T09:50:28.852Z,51.13
2022-12-03T09:52:58.395Z,46.03
2022-12-03T09:55:27.925Z,48.22
2022-12-03T09:57:55.646Z,44.17
2022-12-03T10:00:28.479Z,29.45
2022-12-03T10:02:59.378Z,45.85
2022-12-03T10:05:25.964Z,25.40
2022-12-03T10:07:53.233Z,45.97
2022-12-03T10:10:21.754Z,44.85
2022-12-03T10:12:50.538Z,46.25
2022-12-03T10:15:19.538Z,42.92
2022-12-03T10:17:47.713Z,46.78
2022-12-03T10:20:18.972Z,47.35
2022-12-03T10:22:48.564Z,27.33
2022-12-03T10:25:19.117Z,47.05
2022-12-03T10:28:03.810Z,46.33
2022-12-03T10:30:30.451Z,46.45
2022-12-03T10:32:58.445Z,33.45
2022-12-03T10:35:37.075Z,48.60
2022-12-03T10:38:04.914Z,46.92
2022-12-03T10:40:34.282Z,46.70
2022-12-03T10:43:19.002Z,45.08
2022-12-03T10:45:47.896Z,46.40
2022-12-03T10:48:19.548Z,44.88
2022-12-03T10:50:54.994Z,43.47
2022-12-03T10:53:26.053Z,41.15
2022-12-03T10:55:52.682Z,39.13
2022-12-03T10:58:22.605Z,34.60
2022-12-03T11:00:51.223Z,35.95
2022-12-03T11:03:30.016Z,27.23
2022-12-03T11:05:57.630Z,33.97
2022-12-03T11:08:27.470Z,33.15
2022-12-03T11:10:59.483Z,27.98
2022-12-03T11:16:03.780Z,27.65
2022-12-03T11:18:35.961Z,28.23
2022-12-03T11:21:09.892Z,28.75
2022-12-03T11:23:45.218Z,27.98
2022-12-03T11:26:39.082Z,28.00
2022-12-03T11:29:14.001Z,26.88
2022-12-03T11:31:46.448Z,26.52
2022-12-03T11:34:18.862Z,25.48
2022-12-03T11:37:10.238Z,28.23
2022-12-03T11:39:52.191Z,28.20
2022-12-03T11:42:27.872Z,29.25
2022-12-03T11:45:06.657Z,27.10
2022-12-03T11:47:36.110Z,27.05
2022-12-03T11:50:22.740Z,29.05
2022-12-03T11:52:55.320Z,30.30
2022-12-03T11:56:06.511Z,27.90
2022-12-03T11:58:33.505Z,31.48
2022-12-03T12:01:02.068Z,28.85
2022-12-03T12:03:33.716Z,29.67
2022-12-03T12:06:11.112Z,31.85
2022-12-03T12:08:51.367Z,22.55
2022-12-03T12:11:30.708Z,22.00
2022-12-03T12:14:04.322Z,27.98
2022-12-03T12:16:41.270Z,31.65
2022-12-03T12:19:27.079Z,33.08
2022-12-03T12:21:54.523Z,32.28
2022-12-03T12:24:45.689Z,31.73
2022-12-03T12:27:14.814Z,32.50
2022-12-03T12:29:43.179Z,30.90
2022-12-03T12:32:10.100Z,33.55
2022-12-03T12:34:38.096Z,35.50
2022-12-03T12:37:10.084Z,30.85
2022-12-03T12:42:25.674Z,29.42
2022-12-03T12:44:52.406Z,33.83
2022-12-03T12:47:19.077Z,29.70
2022-12-03T12:49:51.482Z,31.60
2022-12-03T12:52:18.322Z,32.92
2022-12-03T12:54:44.868Z,31.65
2022-12-03T12:57:20.495Z,19.95
2022-12-03T12:59:47.011Z,24.23
2022-12-03T13:02:31.785Z,22.08
2022-12-03T13:05:01.048Z,36.88
2022-12-03T13:07:27.604Z,33.80
2022-12-03T13:09:56.831Z,33.25
2022-12-03T13:12:23.752Z,32.33
2022-12-03T13:14:52.107Z,35.17
2022-12-03T13:17:24.546Z,33.60
2022-12-03T13:20:00.466Z,37.85
2022-12-03T13:22:31.837Z,35.55
2022-12-03T13:25:06.800Z,34.65
2022-12-03T13:27:33.256Z,34.17
2022-12-03T13:30:06.728Z,34.92
2022-12-03T13:32:36.068Z,35.33
2022-12-03T13:35:05.696Z,34.55
2022-12-03T13:37:32.305Z,33.72
2022-12-03T13:40:09.132Z,34.92
2022-12-03T13:42:40.444Z,34.22
2022-12-03T13:45:15.660Z,23.10
2022-12-03T13:47:53.187Z,33.95
2022-12-03T13:50:37.045Z,34.75
2022-12-03T13:53:12.790Z,34.50
2022-12-03T13:55:44.829Z,34.88
2022-12-03T13:58:11.330Z,35.92
2022-12-03T14:00:37.990Z,41.20
2022-12-03T14:03:04.953Z,31.17
2022-12-03T14:05:31.558Z,39.97
2022-12-03T14:08:01.671Z,39.15
2022-12-03T14:10:29.427Z,37.38
2022-12-03T14:12:56.142Z,41.22
2022-12-03T14:15:22.659Z,39.13
2022-12-03T14:17:49.189Z,25.15
2022-12-03T14:20:15.944Z,41.58
2022-12-03T14:22:42.449Z,39.13
2022-12-03T14:25:09.462Z,41.97
2022-12-03T14:27:36.290Z,41.28
2022-12-03T14:30:03.526Z,37.92
2022-12-03T14:32:30.138Z,42.20
2022-12-03T14:34:56.787Z,41.08
2022-12-03T14:37:23.316Z,42.63
2022-12-03T14:39:49.933Z,31.25
2022-12-03T14:42:16.791Z,39.10
2022-12-03T14:44:52.490Z,40.03
2022-12-03T14:47:22.562Z,40.70
2022-12-03T14:49:50.479Z,40.55
2022-12-03T14:52:18.017Z,44.33
2022-12-03T14:54:45.218Z,38.28
2022-12-03T14:57:13.477Z,28.65
2022-12-03T14:59:44.235Z,40.78
2022-12-03T15:02:11.986Z,39.90
2022-12-03T15:04:40.072Z,39.65
2022-12-03T15:07:07.329Z,40.58
2022-12-03T15:09:34.098Z,40.78
2022-12-03T15:12:02.892Z,40.10
2022-12-03T15:14:29.476Z,39.47
2022-12-03T15:16:56.166Z,43.28
2022-12-03T15:19:22.751Z,37.90
2022-12-03T15:21:49.198Z,41.03
2022-12-03T15:24:15.722Z,39.13
2022-12-03T15:26:57.283Z,43.33
2022-12-03T15:29:23.767Z,43.05
2022-12-03T15:31:50.252Z,23.55
2022-12-03T15:34:22.202Z,41.78
2022-12-03T15:36:49.568Z,39.45
2022-12-03T15:39:16.042Z,36.85
2022-12-03T15:41:42.613Z,39.67
2022-12-03T15:44:09.127Z,41.28
2022-12-03T15:46:35.741Z,41.78
2022-12-03T15:49:02.358Z,42.80
2022-12-03T15:51:28.837Z,40.00
2022-12-03T15:53:55.295Z,42.92
2022-12-03T15:56:21.760Z,40.22
2022-12-03T15:58:48.361Z,46.13
2022-12-03T16:01:15.146Z,43.70
2022-12-03T16:03:41.787Z,26.20
2022-12-03T16:06:08.793Z,41.10
2022-12-03T16:08:35.383Z,44.80
2022-12-03T16:11:01.949Z,41.72
2022-12-03T16:13:28.430Z,42.72
2022-12-03T16:15:54.998Z,45.10
2022-12-03T16:18:21.494Z,41.15
2022-12-03T16:20:48.011Z,44.10
2022-12-03T16:23:14.522Z,43.33
2022-12-03T16:25:40.984Z,31.88
2022-12-03T16:28:07.526Z,45.80
2022-12-03T16:30:34.264Z,47.25
2022-12-03T16:33:00.905Z,44.53
2022-12-03T16:35:27.579Z,44.20
2022-12-03T16:37:54.115Z,49.67
2022-12-03T16:40:20.639Z,46.95
2022-12-03T16:42:47.176Z,46.92
2022-12-03T16:45:28.837Z,30.77
2022-12-03T16:47:55.304Z,48.10
2022-12-03T16:50:29.183Z,49.25
2022-12-03T16:52:56.661Z,47.33
2022-12-03T16:55:23.219Z,48.92
2022-12-03T16:57:49.770Z,47.45
2022-12-03T17:00:16.955Z,27.60
2022-12-03T17:02:43.572Z,47.22
2022-12-03T17:05:10.159Z,47.28
2022-12-03T17:07:36.727Z,47.70
2022-12-03T17:10:04.701Z,27.10
2022-12-03T17:12:54.203Z,46.25
2022-12-03T17:15:18.935Z,48.75
2022-12-03T17:17:45.389Z,46.65
2022-12-03T17:20:13.354Z,46.15
2022-12-03T17:22:40.321Z,47.38
2022-12-03T17:25:07.619Z,46.72
2022-12-03T17:27:34.093Z,29.60
2022-12-03T17:30:00.765Z,47.03
2022-12-03T17:32:27.310Z,32.42
2022-12-03T17:34:53.923Z,49.15
2022-12-03T17:37:20.468Z,48.13
2022-12-03T17:39:46.997Z,46.63
2022-12-03T17:42:13.548Z,25.20
2022-12-03T17:44:40.103Z,48.17
2022-12-03T17:47:06.676Z,49.72
2022-12-03T17:49:33.219Z,43.70
2022-12-03T17:51:59.751Z,45.58
2022-12-03T17:54:43.286Z,48.88
2022-12-03T17:57:12.736Z,46.97
2022-12-03T17:59:39.250Z,50.15
2022-12-03T18:02:06.248Z,48.35
2022-12-03T18:04:32.959Z,23.67
2022-12-03T18:07:02.318Z,43.83
2022-12-03T18:09:29.317Z,45.80
2022-12-03T18:11:55.841Z,46.53
2022-12-03T18:14:22.311Z,47.60
2022-12-03T18:16:48.812Z,44.40
2022-12-03T18:19:15.471Z,47.30
2022-12-03T18:21:42.077Z,46.97
2022-12-03T18:24:09.382Z,49.03
2022-12-03T18:26:35.919Z,26.60
2022-12-03T18:29:02.534Z,51.50
2022-12-03T18:31:29.188Z,48.33
2022-12-03T18:33:55.787Z,49.55
2022-12-03T18:36:25.684Z,49.75
2022-12-03T18:38:55.191Z,48.53
2022-12-03T18:41:23.338Z,51.03
2022-12-03T18:43:50.816Z,53.95
2022-12-03T18:46:51.284Z,51.30
2022-12-03T18:49:05.490Z,52.28
2022-12-03T18:51:32.031Z,53.60
2022-12-03T18:53:58.535Z,55.50
2022-12-03T18:56:25.139Z,53.35
2022-12-03T18:58:51.735Z,59.97
2022-12-03T19:01:21.171Z,54.55
2022-12-03T19:03:49.061Z,54.03
2022-12-03T19:06:19.067Z,55.30
2022-12-03T19:08:48.149Z,57.30
2022-12-03T19:11:14.953Z,62.60
2022-12-03T19:13:42.353Z,58.25
2022-12-03T19:16:10.228Z,37.08
2022-12-03T19:18:36.787Z,61.08
2022-12-03T19:21:08.032Z,60.80
2022-12-03T19:23:35.703Z,59.15
2022-12-03T19:26:03.753Z,59.28
2022-12-03T19:28:30.727Z,58.20
2022-12-03T19:31:08.952Z,58.33
2022-12-03T19:33:35.865Z,34.58
2022-12-03T19:36:04.213Z,35.10
2022-12-03T19:38:31.265Z,63.60
2022-12-03T19:41:00.550Z,57.95
2022-12-03T19:43:27.386Z,59.42
2022-12-03T19:45:54.574Z,58.70
2022-12-03T19:48:22.897Z,63.47
2022-12-03T19:51:07.921Z,59.88
2022-12-03T19:53:40.497Z,59.78
2022-12-03T19:56:09.827Z,62.30
2022-12-03T19:58:37.099Z,61.53
2022-12-03T20:01:20.363Z,61.03
2022-12-03T20:03:48.887Z,60.38
2022-12-03T20:06:16.967Z,33.85
2022-12-03T20:08:43.821Z,59.13
2022-12-03T20:11:19.719Z,39.67
2022-12-03T20:13:48.106Z,41.53
2022-12-03T20:16:15.603Z,63.00
2022-12-03T20:18:46.256Z,60.47
2022-12-03T20:21:14.339Z,39.15
2022-12-03T20:23:41.655Z,60.25
2022-12-03T20:26:10.252Z,33.15
2022-12-03T20:28:37.297Z,36.47
2022-12-03T20:31:11.770Z,64.20
2022-12-03T20:33:39.489Z,62.35
2022-12-03T20:36:06.586Z,33.97
2022-12-03T20:38:33.478Z,58.92
2022-12-03T20:41:08.396Z,31.38
2022-12-03T20:43:35.590Z,58.72
2022-12-03T20:46:09.256Z,62.58
2022-12-03T20:48:35.926Z,42.85
2022-12-03T20:51:06.828Z,38.53
2022-12-03T20:53:33.853Z,59.35
2022-12-03T20:56:01.350Z,60.92
2022-12-03T20:58:28.594Z,62.35
2022-12-03T21:00:55.145Z,63.72
2022-12-03T21:03:22.073Z,63.25
2022-12-03T21:05:48.620Z,60.80
2022-12-03T21:08:15.168Z,63.60
2022-12-03T21:10:44.912Z,63.90
2022-12-03T21:13:16.481Z,36.88
2022-12-03T21:15:44.010Z,62.67
2022-12-03T21:18:12.575Z,40.28
2022-12-03T21:20:44.006Z,63.97
2022-12-03T21:23:11.229Z,63.13
2022-12-03T21:25:38.089Z,66.38
2022-12-03T21:28:06.579Z,65.10
2022-12-03T21:30:34.035Z,64.15
2022-12-03T21:33:00.549Z,67.50
2022-12-03T21:35:27.083Z,67.65
2022-12-03T21:37:53.566Z,65.45
2022-12-03T21:40:20.562Z,38.30
2022-12-03T21:42:47.264Z,46.65
2022-12-03T21:45:14.195Z,35.08
2022-12-03T21:47:40.791Z,69.53
2022-12-03T21:50:11.056Z,70.57
2022-12-03T21:52:37.575Z,64.75
2022-12-03T21:55:04.271Z,45.97
2022-12-03T21:57:30.874Z,36.70
2022-12-03T21:59:57.696Z,39.67
2022-12-03T22:02:24.322Z,68.00
2022-12-03T22:04:51.018Z,67.82
2022-12-03T22:07:17.602Z,68.03
2022-12-03T22:09:44.119Z,65.13
2022-12-03T22:12:10.642Z,69.88
2022-12-03T22:14:37.394Z,44.25
2022-12-03T22:17:03.903Z,67.82
2022-12-03T22:19:30.378Z,65.18
2022-12-03T22:21:56.993Z,64.68
2022-12-03T22:24:23.962Z,33.85
2022-12-03T22:26:52.158Z,65.95
2022-12-03T22:29:18.712Z,49.45
2022-12-03T22:31:45.265Z,67.03
2022-12-03T22:34:11.828Z,68.57
2022-12-03T22:36:38.377Z,65.32
2022-12-03T22:39:04.849Z,67.32
2022-12-03T22:41:31.396Z,68.75
2022-12-03T22:43:57.945Z,64.38
2022-12-03T22:46:24.528Z,42.17
2022-12-03T22:48:51.059Z,65.28
2022-12-03T22:51:21.150Z,64.53
2022-12-03T22:53:52.863Z,68.35
2022-12-03T22:56:19.318Z,70.07
2022-12-03T22:58:45.829Z,66.97
2022-12-03T23:01:24.418Z,45.47
2022-12-03T23:03:51.080Z,41.38
2022-12-03T23:06:18.722Z,63.95
2022-12-03T23:08:45.461Z,66.30
2022-12-03T23:11:12.072Z,72.72
2022-12-03T23:13:39.197Z,41.65
2022-12-03T23:16:06.574Z,65.95
2022-12-03T23:18:33.464Z,64.90
2022-12-03T23:21:00.114Z,70.50
2022-12-03T23:23:27.974Z,64.82
2022-12-03T23:25:59.477Z,66.68
2022-12-03T23:28:27.285Z,42.17
2022-12-03T23:30:54.220Z,38.55
2022-12-03T23:33:21.469Z,65.45
2022-12-03T23:35:48.258Z,70.40
2022-12-03T23:38:15.421Z,65.18
2022-12-03T23:40:47.744Z,65.88
2022-12-03T23:43:14.962Z,30.95
2022-12-03T23:45:41.506Z,68.07
2022-12-03T23:48:08.002Z,70.35
2022-12-03T23:50:34.868Z,66.20
2022-12-03T23:53:01.447Z,67.40
2022-12-03T23:55:27.934Z,67.72
2022-12-03T23:57:54.524Z,42.25
